Gifford, Iowa
Current Conditions -  °F | °C
As of 9:53 PM on Sunday 21 Dec 2014 (Local Time) from KMIW Reporting Station
Overcast Overcast  
Wind Chill:   Ceiling: 800
Heat Index:   Visibility: 7mi
Dew Point:   Wind: 14mph
Humidity: 93%   Direction: 150°SSE
Pressure: 29.78"   Gusts: NA
Location:  42.29°N, 93.09°W
Report Text: KMIW 220353Z AUTO 15012KT 7SM OVC008 04/03 A2978 RMK AO2 SLP090 T00440033
Loading
Personal Weather Stations






























Interactive Weather Map New forecast layout! Learn more

10-Day Weather Forecast

Advertisements
Track Severe Weather on mobile